Time;durP1;ratioP1;P1;durP2;ratioP2;P2;SDS_P1;SDS_P2;PMS_P1;PMS_P2;Temp;Humidity;BMP_temperature;BMP_pressure;BME280_temperature;BME280_humidity;BME280_pressure;Samples;Min_cycle;Max_cycle;Signal;HPM_P1;HPM_P2
2022/09/29 00:00:43;;;;;;;11.33;7.40;;;6.70;98.50;;;;;;5048511;28;20471;-60
2022/09/29 00:03:10;;;;;;;27.90;7.47;;;6.80;98.30;;;;;;5046894;28;20479;-60
2022/09/29 00:05:36;;;;;;;11.10;7.90;;;6.80;98.20;;;;;;5052566;28;20479;-60
2022/09/29 00:08:03;;;;;;;10.80;7.10;;;6.70;98.90;;;;;;5035495;28;20483;-61
2022/09/29 00:10:30;;;;;;;10.53;7.47;;;6.50;99.90;;;;;;5059945;28;20506;-60
2022/09/29 00:12:58;;;;;;;9.60;7.20;;;6.40;99.90;;;;;;5040969;28;20950;-61
2022/09/29 00:15:24;;;;;;;13.83;9.73;;;6.50;99.90;;;;;;5045699;28;20487;-60
2022/09/29 00:17:51;;;;;;;27.23;7.53;;;6.60;99.90;;;;;;5039271;28;20496;-60
2022/09/29 00:20:18;;;;;;;13.80;10.10;;;6.70;99.90;;;;;;5045072;28;20699;-60
2022/09/29 00:22:49;;;;;;;8.83;7.13;;;6.70;99.90;;;;;;5046392;28;20483;-60
2022/09/29 00:25:15;;;;;;;23.80;7.40;;;6.80;99.50;;;;;;5035003;28;20918;-60
2022/09/29 00:27:42;;;;;;;11.70;8.57;;;6.80;99.70;;;;;;5037351;28;21200;-60
2022/09/29 00:30:11;;;;;;;10.43;8.97;;;6.90;99.40;;;;;;5047953;28;20479;-61
2022/09/29 00:32:38;;;;;;;12.90;5.30;;;6.90;98.80;;;;;;5048003;28;20472;-62
2022/09/29 00:35:07;;;;;;;7.57;5.83;;;7.00;98.20;;;;;;5048755;28;20483;-61
2022/09/29 00:37:33;;;;;;;9.47;6.10;;;6.90;97.80;;;;;;5048867;28;20984;-60
2022/09/29 00:40:01;;;;;;;12.10;4.90;;;6.90;97.90;;;;;;5048582;28;21019;-60
2022/09/29 00:42:28;;;;;;;9.60;6.30;;;6.80;98.00;;;;;;5048105;28;20495;-60
2022/09/29 00:45:01;;;;;;;8.57;6.83;;;6.80;98.10;;;;;;5048442;28;20486;-60
2022/09/29 00:47:31;;;;;;;13.30;5.77;;;8.00;98.90;;;;;;5046353;28;20487;-60
2022/09/29 00:50:02;;;;;;;7.70;6.33;;;6.90;98.30;;;;;;5050295;28;20881;-60
2022/09/29 00:52:32;;;;;;;11.10;8.30;;;6.90;98.00;;;;;;5047896;28;20471;-60
2022/09/29 00:55:03;;;;;;;6.43;5.30;;;6.90;97.70;;;;;;5050399;28;20691;-60
2022/09/29 00:57:36;;;;;;;10.97;6.97;;;6.90;97.70;;;;;;5044852;28;20562;-60
2022/09/29 01:00:07;;;;;;;15.03;7.60;;;6.90;97.60;;;;;;5055495;28;20479;-60
2022/09/29 01:02:38;;;;;;;13.87;6.87;;;6.90;97.60;;;;;;5045366;28;20480;-60
2022/09/29 01:05:11;;;;;;;7.50;5.37;;;6.90;97.40;;;;;;5044732;28;20486;-60
2022/09/29 01:07:39;;;;;;;12.90;9.13;;;6.90;97.30;;;;;;5049502;28;20471;-60
2022/09/29 01:10:07;;;;;;;13.63;9.73;;;6.90;97.40;;;;;;5047480;28;20514;-61
2022/09/29 01:12:35;;;;;;;13.93;6.03;;;6.80;97.20;;;;;;5048078;28;20472;-60
2022/09/29 01:15:02;;;;;;;10.37;7.60;;;6.80;97.30;;;;;;5047373;28;20898;-61
2022/09/29 01:17:29;;;;;;;11.27;7.30;;;6.80;97.40;;;;;;5045977;28;20487;-60
2022/09/29 01:20:07;;;;;;;16.30;7.90;;;6.80;97.30;;;;;;5047494;28;20495;-60
2022/09/29 01:23:19;;;;;;;13.60;9.00;;;6.70;97.00;;;;;;5033719;28;20487;-60
2022/09/29 01:26:02;;;;;;;11.33;6.90;;;6.70;96.90;;;;;;5012987;28;20862;-60
2022/09/29 01:29:01;;;;;;;7.40;6.20;;;6.70;96.90;;;;;;5042092;28;20845;-60
2022/09/29 01:31:35;;;;;;;15.90;7.30;;;6.70;96.80;;;;;;5041548;28;21001;-61
2022/09/29 01:34:09;;;;;;;11.00;8.00;;;6.70;96.90;;;;;;5046552;28;20717;-61
2022/09/29 01:36:48;;;;;;;10.20;6.23;;;6.60;97.10;;;;;;5049479;28;20918;-60
2022/09/29 01:39:25;;;;;;;13.07;9.57;;;6.60;97.20;;;;;;5044872;28;20479;-61
2022/09/29 01:41:56;;;;;;;7.47;5.33;;;6.60;97.30;;;;;;5038031;28;20547;-60
2022/09/29 01:44:29;;;;;;;12.93;9.23;;;6.60;97.40;;;;;;5046493;28;20467;-60
2022/09/29 01:47:01;;;;;;;9.30;6.77;;;6.60;97.40;;;;;;5044176;28;20479;-61
2022/09/29 01:49:34;;;;;;;14.20;8.80;;;6.40;98.00;;;;;;5045223;28;20479;-61
2022/09/29 01:52:03;;;;;;;8.40;6.67;;;6.20;98.50;;;;;;5034980;28;20483;-60
2022/09/29 01:54:36;;;;;;;29.53;7.00;;;6.10;99.20;;;;;;5062998;28;20491;-60
2022/09/29 01:57:09;;;;;;;11.70;7.83;;;6.20;99.60;;;;;;5046492;28;20881;-61
2022/09/29 01:59:43;;;;;;;11.60;7.67;;;6.40;99.50;;;;;;5048519;28;20984;-60
2022/09/29 02:02:17;;;;;;;10.43;7.67;;;6.50;99.50;;;;;;5042338;28;20484;-59
2022/09/29 02:04:50;;;;;;;8.90;5.30;;;6.50;99.60;;;;;;5046829;28;20837;-60
2022/09/29 02:07:24;;;;;;;14.37;10.07;;;6.70;99.60;;;;;;5035701;28;20479;-60
2022/09/29 02:09:57;;;;;;;12.03;6.90;;;6.80;99.50;;;;;;5046300;28;21081;-60
2022/09/29 02:12:27;;;;;;;17.43;8.90;;;6.90;99.70;;;;;;5050184;28;20474;-59
2022/09/29 02:14:56;;;;;;;9.30;6.50;;;6.90;99.70;;;;;;5054587;28;20474;-61
2022/09/29 02:17:29;;;;;;;10.80;7.60;;;7.00;99.60;;;;;;5042071;28;20808;-60
2022/09/29 02:19:56;;;;;;;15.53;7.60;;;7.10;99.20;;;;;;5044223;28;20780;-60
2022/09/29 02:22:23;;;;;;;15.03;10.80;;;7.10;99.10;;;;;;5062608;28;20470;-61
2022/09/29 02:24:55;;;;;;;8.57;7.13;;;7.20;99.10;;;;;;5062249;28;20846;-62
2022/09/29 02:27:22;;;;;;;14.60;9.50;;;7.20;99.00;;;;;;5056900;28;20557;-61
2022/09/29 02:29:50;;;;;;;6.47;5.37;;;7.30;98.90;;;;;;5071139;28;20470;-61
2022/09/29 02:32:18;;;;;;;11.00;7.63;;;7.30;99.10;;;;;;5069627;28;20822;-61
2022/09/29 02:34:50;;;;;;;9.43;6.40;;;7.30;99.20;;;;;;5072818;28;20482;-62
2022/09/29 02:37:37;;;;;;;12.13;10.13;;;7.40;99.20;;;;;;5068935;28;20917;-61
2022/09/29 02:40:17;;;;;;;6.87;6.17;;;7.40;99.40;;;;;;5059255;28;20491;-61
2022/09/29 02:42:58;;;;;;;10.63;6.53;;;7.40;99.90;;;;;;5027894;28;20491;-60
2022/09/29 02:45:37;;;;;;;11.80;9.10;;;7.50;99.90;;;;;;5048426;28;20475;-61
2022/09/29 02:48:15;;;;;;;28.03;7.30;;;7.50;99.80;;;;;;5038547;28;20710;-61
2022/09/29 02:50:56;;;;;;;10.00;7.80;;;7.50;99.50;;;;;;5052000;28;20846;-61
2022/09/29 02:53:36;;;;;;;16.80;7.80;;;7.40;99.30;;;;;;5052106;28;20467;-61
2022/09/29 02:56:11;;;;;;;8.77;6.33;;;7.40;99.30;;;;;;5033886;28;21032;-61
2022/09/29 02:58:43;;;;;;;12.83;6.77;;;7.40;99.30;;;;;;5049655;28;20482;-60
2022/09/29 03:01:10;;;;;;;12.90;6.67;;;7.50;99.40;;;;;;5035268;28;20487;-61
2022/09/29 03:03:37;;;;;;;9.27;6.60;;;7.50;99.40;;;;;;5051301;28;20511;-61
2022/09/29 03:06:06;;;;;;;17.90;7.87;;;7.50;99.20;;;;;;5049061;28;20692;-61
2022/09/29 03:08:32;;;;;;;8.90;6.70;;;7.60;99.20;;;;;;5051336;28;21054;-60
2022/09/29 03:10:59;;;;;;;10.40;5.37;;;7.60;99.20;;;;;;5059072;28;20479;-60
2022/09/29 03:13:26;;;;;;;12.97;6.53;;;7.40;99.40;;;;;;5052792;28;20487;-60
2022/09/29 03:15:53;;;;;;;8.83;5.90;;;7.30;99.50;;;;;;5031039;28;20479;-60
2022/09/29 03:18:21;;;;;;;12.40;8.50;;;7.30;99.80;;;;;;5039538;28;20489;-60
2022/09/29 03:20:49;;;;;;;7.17;6.37;;;7.40;99.70;;;;;;5036353;28;20502;-60
2022/09/29 03:23:17;;;;;;;10.40;8.40;;;7.50;99.90;;;;;;5033981;28;20941;-60
2022/09/29 03:25:44;;;;;;;8.00;6.30;;;7.50;99.90;;;;;;5039162;28;20483;-60
2022/09/29 03:28:10;;;;;;;8.27;6.20;;;7.60;99.90;;;;;;5035006;28;20484;-60
2022/09/29 03:30:37;;;;;;;7.33;5.80;;;7.60;99.90;;;;;;5038374;28;20479;-60
2022/09/29 03:33:04;;;;;;;7.90;5.63;;;7.70;99.90;;;;;;5041683;28;20488;-60
2022/09/29 03:35:31;;;;;;;7.50;6.47;;;7.80;99.90;;;;;;5036272;28;20519;-61
2022/09/29 03:37:59;;;;;;;10.93;7.73;;;7.80;99.90;;;;;;5035793;28;21071;-60
2022/09/29 03:40:27;;;;;;;9.17;7.77;;;7.90;99.90;;;;;;5037330;28;22389;-60
2022/09/29 03:42:54;;;;;;;7.73;6.23;;;7.90;99.90;;;;;;5036994;28;20835;-60
2022/09/29 03:45:21;;;;;;;12.70;8.37;;;7.90;99.90;;;;;;5033524;28;20827;-60
2022/09/29 03:47:47;;;;;;;9.93;7.53;;;8.00;99.90;;;;;;5035905;28;20760;-60
2022/09/29 03:50:14;;;;;;;13.50;10.27;;;8.10;99.90;;;;;;5034913;28;20484;-60
2022/09/29 03:52:41;;;;;;;8.20;7.40;;;8.10;99.90;;;;;;5036444;28;20487;-60
2022/09/29 03:55:09;;;;;;;8.10;6.93;;;8.20;99.90;;;;;;5033677;28;20495;-60
2022/09/29 03:57:37;;;;;;;8.97;7.60;;;8.30;99.90;;;;;;5033393;28;20550;-60
2022/09/29 04:00:04;;;;;;;8.37;6.23;;;8.30;99.90;;;;;;5035273;28;20468;-60
2022/09/29 04:02:33;;;;;;;12.40;5.73;;;8.40;99.90;;;;;;5048941;28;20733;-60
2022/09/29 04:05:00;;;;;;;6.67;5.90;;;8.40;99.90;;;;;;5047486;28;20483;-60
2022/09/29 04:07:26;;;;;;;9.57;6.73;;;8.50;99.90;;;;;;5049260;28;20952;-60
2022/09/29 04:09:53;;;;;;;8.67;6.13;;;8.50;99.90;;;;;;5042674;28;20773;-60
2022/09/29 04:12:20;;;;;;;14.83;9.43;;;8.60;99.90;;;;;;5045709;28;20533;-60
2022/09/29 04:14:48;;;;;;;10.07;7.47;;;8.50;99.90;;;;;;5062976;28;21031;-60
2022/09/29 04:17:14;;;;;;;6.73;5.90;;;8.50;99.90;;;;;;5053455;28;20472;-60
2022/09/29 04:19:42;;;;;;;10.83;6.90;;;8.50;99.90;;;;;;5050671;28;21014;-60
2022/09/29 04:22:09;;;;;;;9.03;7.40;;;8.60;99.90;;;;;;5050171;28;20906;-60
2022/09/29 04:24:37;;;;;;;21.47;6.70;;;8.60;99.90;;;;;;5054526;28;20475;-60
2022/09/29 04:27:04;;;;;;;8.93;6.77;;;8.60;99.90;;;;;;5046332;28;21073;-60
2022/09/29 04:29:31;;;;;;;6.70;5.80;;;8.50;99.90;;;;;;5048193;28;21247;-62
2022/09/29 04:31:59;;;;;;;21.03;5.63;;;8.60;99.90;;;;;;5056853;28;21142;-60
2022/09/29 04:34:26;;;;;;;10.10;7.60;;;8.70;99.90;;;;;;5055972;28;20487;-60
2022/09/29 04:36:53;;;;;;;5.97;5.20;;;8.70;99.90;;;;;;5071421;28;20487;-61
2022/09/29 04:39:19;;;;;;;9.33;8.27;;;8.50;99.90;;;;;;5066103;28;21363;-61
2022/09/29 04:41:46;;;;;;;7.80;6.53;;;8.50;99.90;;;;;;5072819;28;20483;-60
2022/09/29 04:44:13;;;;;;;11.87;7.17;;;8.50;99.90;;;;;;5069681;28;20928;-60
2022/09/29 04:46:40;;;;;;;23.10;7.00;;;8.60;99.90;;;;;;5062857;28;20528;-60
2022/09/29 04:49:08;;;;;;;9.57;7.43;;;8.70;99.90;;;;;;5075279;28;20479;-61
2022/09/29 04:51:35;;;;;;;7.00;6.30;;;8.70;99.90;;;;;;5074764;28;20561;-60
2022/09/29 04:54:01;;;;;;;8.53;6.40;;;8.80;99.90;;;;;;5076902;28;20489;-61
2022/09/29 04:56:30;;;;;;;7.97;7.13;;;8.90;99.90;;;;;;5073572;28;20880;-61
2022/09/29 04:58:57;;;;;;;11.73;6.40;;;8.90;99.90;;;;;;5074186;28;20571;-61
2022/09/29 05:01:24;;;;;;;8.67;7.40;;;8.90;99.90;;;;;;5069864;28;20494;-60
2022/09/29 05:03:51;;;;;;;8.33;5.70;;;9.00;99.90;;;;;;5073022;28;20501;-61
2022/09/29 05:06:19;;;;;;;10.30;8.90;;;9.00;99.90;;;;;;5071562;28;20491;-60
2022/09/29 05:08:45;;;;;;;27.23;8.60;;;9.10;99.90;;;;;;5060949;28;20830;-61
2022/09/29 05:11:12;;;;;;;15.17;10.57;;;9.10;99.90;;;;;;5068947;28;20482;-61
2022/09/29 05:13:39;;;;;;;12.20;8.13;;;9.10;99.90;;;;;;5069678;28;20498;-61
2022/09/29 05:16:06;;;;;;;8.67;6.63;;;9.10;99.90;;;;;;5072176;28;20478;-61
2022/09/29 05:18:33;;;;;;;9.50;6.50;;;9.10;99.90;;;;;;5072181;28;20918;-62
2022/09/29 05:21:03;;;;;;;12.93;7.83;;;9.10;99.90;;;;;;5065313;28;20495;-62
2022/09/29 05:23:31;;;;;;;12.40;7.80;;;9.10;99.90;;;;;;5072912;28;20948;-62
2022/09/29 05:26:01;;;;;;;17.83;6.40;;;9.10;99.90;;;;;;5068075;28;20490;-62
2022/09/29 05:28:29;;;;;;;8.90;6.87;;;9.20;99.90;;;;;;5071626;28;20502;-62
2022/09/29 05:31:00;;;;;;;11.57;5.90;;;9.20;99.90;;;;;;5070640;28;20494;-61
2022/09/29 05:33:26;;;;;;;15.30;8.80;;;9.20;99.90;;;;;;5069521;28;20482;-61
2022/09/29 05:35:53;;;;;;;9.17;6.60;;;9.20;99.90;;;;;;5068836;28;20481;-62
2022/09/29 05:38:21;;;;;;;11.87;8.40;;;9.30;99.90;;;;;;5069543;28;20486;-62
2022/09/29 05:40:49;;;;;;;10.00;5.53;;;9.40;99.90;;;;;;5072723;28;20575;-61
2022/09/29 05:43:16;;;;;;;14.50;8.03;;;9.30;99.90;;;;;;5058889;27;20470;-62
2022/09/29 05:45:43;;;;;;;13.67;7.50;;;9.30;99.90;;;;;;5055379;28;20481;-62
2022/09/29 05:48:16;;;;;;;13.23;9.80;;;9.30;99.90;;;;;;5052642;28;20852;-62
2022/09/29 05:50:44;;;;;;;17.70;8.03;;;9.40;99.90;;;;;;5061251;28;20903;-62
2022/09/29 05:53:11;;;;;;;13.20;8.47;;;9.40;99.90;;;;;;5064835;28;20835;-62
2022/09/29 05:55:38;;;;;;;24.00;11.63;;;9.40;99.90;;;;;;5067407;28;20478;-62
2022/09/29 05:58:07;;;;;;;17.90;11.50;;;9.40;99.90;;;;;;5069616;28;20940;-62
2022/09/29 06:00:34;;;;;;;18.73;14.63;;;9.40;99.90;;;;;;5069742;28;20990;-62
2022/09/29 06:03:02;;;;;;;14.83;9.53;;;9.40;99.90;;;;;;5072563;28;20831;-62
2022/09/29 06:05:29;;;;;;;18.83;10.10;;;9.40;99.90;;;;;;5057231;28;20512;-62
2022/09/29 06:07:55;;;;;;;10.27;6.70;;;12.50;99.90;;;;;;5070858;28;20522;-62
2022/09/29 06:10:23;;;;;;;10.40;8.60;;;9.30;99.90;;;;;;5064260;28;20486;-61
2022/09/29 06:12:49;;;;;;;10.63;5.40;;;9.30;99.90;;;;;;5064405;28;20486;-62
2022/09/29 06:15:18;;;;;;;11.60;9.13;;;9.30;99.90;;;;;;5069501;28;20618;-62
2022/09/29 06:17:44;;;;;;;11.60;8.43;;;9.30;99.90;;;;;;5067956;28;20474;-61
2022/09/29 06:20:11;;;;;;;13.80;6.57;;;9.40;99.90;;;;;;5068401;28;20487;-61
2022/09/29 06:22:38;;;;;;;13.03;7.00;;;9.50;99.90;;;;;;5071653;28;21747;-61
2022/09/29 06:25:05;;;;;;;18.03;8.90;;;9.50;99.90;;;;;;5072051;28;20848;-61
2022/09/29 06:27:32;;;;;;;17.30;7.57;;;9.60;99.90;;;;;;5059071;28;20728;-61
2022/09/29 06:29:59;;;;;;;11.00;7.83;;;9.60;99.90;;;;;;5064861;28;20475;-62
2022/09/29 06:32:27;;;;;;;10.40;9.23;;;9.70;99.90;;;;;;5072005;28;20990;-61
2022/09/29 06:37:45;;;;;;;13.90;8.23;;;9.80;99.90;;;;;;5059001;28;20481;-62
2022/09/29 06:40:13;;;;;;;12.47;7.17;;;9.90;99.90;;;;;;5075544;28;20486;-61
2022/09/29 06:42:40;;;;;;;9.20;6.40;;;9.90;99.90;;;;;;5076651;28;21006;-61
2022/09/29 06:45:09;;;;;;;6.93;6.23;;;9.90;99.90;;;;;;5071652;28;20842;-61
2022/09/29 06:47:37;;;;;;;9.60;6.50;;;9.90;99.90;;;;;;5063891;28;21020;-60
2022/09/29 06:50:05;;;;;;;9.43;6.97;;;9.90;99.90;;;;;;5078749;28;20486;-61
2022/09/29 06:52:32;;;;;;;9.90;7.30;;;9.90;99.90;;;;;;5069855;28;20470;-61
2022/09/29 06:54:59;;;;;;;6.90;5.80;;;9.90;99.90;;;;;;5076009;28;20798;-61
2022/09/29 06:57:26;;;;;;;10.13;8.17;;;10.00;99.90;;;;;;5073726;28;20478;-60
2022/09/29 06:59:53;;;;;;;8.60;5.13;;;10.10;99.90;;;;;;5075846;28;20688;-61
2022/09/29 07:02:20;;;;;;;14.23;8.70;;;10.20;99.90;;;;;;5072061;28;20490;-61
2022/09/29 07:04:48;;;;;;;9.70;7.07;;;10.20;99.90;;;;;;5071552;28;20478;-61
2022/09/29 07:07:15;;;;;;;8.37;6.37;;;;;;;;;;5074893;28;20648;-61
2022/09/29 07:09:42;;;;;;;9.53;7.00;;;10.30;99.90;;;;;;5055696;28;20480;-61
2022/09/29 07:12:10;;;;;;;10.30;6.87;;;10.40;99.90;;;;;;5073494;28;20486;-61
2022/09/29 07:14:37;;;;;;;9.17;6.83;;;10.50;99.90;;;;;;5068631;28;21071;-60
2022/09/29 07:17:04;;;;;;;11.17;7.90;;;10.50;99.90;;;;;;5074175;28;20476;-61
2022/09/29 07:19:31;;;;;;;10.70;7.90;;;10.60;99.90;;;;;;5059070;28;20752;-61
2022/09/29 07:21:59;;;;;;;9.60;6.57;;;10.70;99.90;;;;;;5071116;28;20482;-61
2022/09/29 07:24:26;;;;;;;8.40;7.30;;;10.70;99.90;;;;;;5063796;28;20703;-61
2022/09/29 07:26:52;;;;;;;9.70;7.43;;;10.80;99.90;;;;;;5072981;28;20480;-61
2022/09/29 07:29:19;;;;;;;12.67;9.00;;;10.90;99.90;;;;;;5071179;28;20551;-60
2022/09/29 07:31:46;;;;;;;7.90;5.77;;;11.00;99.90;;;;;;5055891;28;20593;-61
2022/09/29 07:34:13;;;;;;;9.03;8.17;;;11.10;99.90;;;;;;5075680;28;21158;-61
2022/09/29 07:36:39;;;;;;;10.10;7.43;;;11.20;99.90;;;;;;5067288;28;20517;-60
2022/09/29 07:39:08;;;;;;;9.60;7.30;;;11.30;99.90;;;;;;5069395;28;20553;-61
2022/09/29 07:41:34;;;;;;;7.40;6.70;;;11.40;99.90;;;;;;5056758;28;21287;-61
2022/09/29 07:44:01;;;;;;;8.33;6.30;;;11.40;99.90;;;;;;5063346;28;20488;-61
2022/09/29 07:46:28;;;;;;;9.03;7.00;;;11.50;99.90;;;;;;5072613;28;20474;-61
2022/09/29 07:48:55;;;;;;;7.70;6.23;;;11.50;99.90;;;;;;5069546;28;20929;-61
2022/09/29 07:51:21;;;;;;;10.00;7.67;;;11.60;99.90;;;;;;5073555;28;21203;-61
2022/09/29 07:53:48;;;;;;;8.47;6.87;;;11.70;99.90;;;;;;5062600;28;20502;-60
2022/09/29 07:56:18;;;;;;;9.13;8.23;;;11.80;99.90;;;;;;5056365;28;20852;-60
2022/09/29 07:58:45;;;;;;;10.23;6.30;;;11.90;99.90;;;;;;5074223;28;20478;-60
2022/09/29 08:01:14;;;;;;;11.20;7.57;;;12.00;99.90;;;;;;5071952;28;20486;-60
2022/09/29 08:03:42;;;;;;;8.77;7.07;;;12.10;99.90;;;;;;5074773;28;20532;-60
2022/09/29 08:06:10;;;;;;;18.90;8.67;;;12.20;99.90;;;;;;5055732;28;20495;-60
2022/09/29 08:08:37;;;;;;;17.00;8.33;;;12.30;99.90;;;;;;5073247;28;20481;-60
2022/09/29 08:11:05;;;;;;;11.70;7.60;;;12.40;99.90;;;;;;5074713;28;20739;-60
2022/09/29 08:13:35;;;;;;;29.97;14.27;;;12.50;99.90;;;;;;5059102;28;20556;-60
2022/09/29 08:16:03;;;;;;;34.83;13.23;;;12.60;99.90;;;;;;5069462;28;20479;-61
2022/09/29 08:18:33;;;;;;;20.03;10.77;;;12.60;99.90;;;;;;5070320;28;20505;-61
2022/09/29 08:21:00;;;;;;;41.10;13.67;;;12.70;99.90;;;;;;5073690;28;20474;-61
2022/09/29 08:23:27;;;;;;;10.63;7.60;;;12.70;99.90;;;;;;5056596;28;20498;-60
2022/09/29 08:26:00;;;;;;;16.23;8.10;;;12.70;99.90;;;;;;5069325;28;20486;-61
2022/09/29 08:28:27;;;;;;;9.60;7.50;;;12.70;99.90;;;;;;5071077;28;20508;-60
2022/09/29 08:30:55;;;;;;;10.53;6.30;;;12.80;99.90;;;;;;5068077;28;20475;-60
2022/09/29 08:33:22;;;;;;;11.23;9.00;;;12.80;99.90;;;;;;5077139;28;20486;-60
2022/09/29 08:35:55;;;;;;;11.80;6.70;;;12.90;99.90;;;;;;5074680;28;20478;-60
2022/09/29 08:38:22;;;;;;;12.90;9.43;;;12.90;99.90;;;;;;5073546;28;20518;-60
2022/09/29 08:40:49;;;;;;;27.23;8.57;;;11.90;99.90;;;;;;5073165;28;20502;-60
2022/09/29 08:43:25;;;;;;;13.67;8.27;;;13.00;99.90;;;;;;5074148;28;21002;-60
2022/09/29 08:45:59;;;;;;;10.53;7.33;;;13.00;99.90;;;;;;5074610;28;20501;-61
2022/09/29 08:48:31;;;;;;;9.37;8.33;;;13.20;99.90;;;;;;5070344;28;20477;-62
2022/09/29 08:51:02;;;;;;;9.07;7.20;;;13.30;99.90;;;;;;5073429;28;20553;-62
2022/09/29 08:53:32;;;;;;;15.23;7.70;;;13.30;99.90;;;;;;5071321;28;21048;-62
2022/09/29 08:56:03;;;;;;;9.40;7.50;;;13.40;99.90;;;;;;5074136;28;21225;-62
2022/09/29 08:58:31;;;;;;;11.70;6.57;;;13.40;99.90;;;;;;5065789;28;20976;-63
2022/09/29 09:01:10;;;;;;;11.33;7.30;;;13.30;99.90;;;;;;5075650;28;20494;-62
2022/09/29 09:03:55;;;;;;;8.03;7.30;;;13.30;99.90;;;;;;5069190;28;20892;-62
2022/09/29 09:06:32;;;;;;;12.47;8.97;;;13.30;99.90;;;;;;5079683;28;20543;-62
2022/09/29 09:09:03;;;;;;;9.20;7.70;;;;;;;;;;5072369;28;20493;-62
2022/09/29 09:11:43;;;;;;;8.57;7.60;;;13.50;99.90;;;;;;5070718;28;20490;-62
2022/09/29 09:14:25;;;;;;;11.03;9.07;;;13.60;99.90;;;;;;5058634;28;20490;-62
2022/09/29 09:17:04;;;;;;;12.13;7.33;;;13.70;99.90;;;;;;5051727;28;20475;-62
2022/09/29 09:19:55;;;;;;;12.30;8.70;;;13.70;99.90;;;;;;5068998;28;20486;-63
2022/09/29 09:22:24;;;;;;;18.73;8.33;;;13.60;99.90;;;;;;5055713;28;20477;-62
2022/09/29 09:24:57;;;;;;;7.70;7.00;;;13.40;99.90;;;;;;5069197;28;20486;-62
2022/09/29 09:27:26;;;;;;;10.37;8.83;;;13.40;99.90;;;;;;5068208;28;20486;-62
2022/09/29 09:30:02;;;;;;;14.90;7.30;;;13.40;99.40;;;;;;5057778;28;20482;-62
2022/09/29 09:32:33;;;;;;;11.27;8.40;;;13.70;99.90;;;;;;5067655;28;20507;-62
2022/09/29 09:35:04;;;;;;;21.90;7.90;;;13.90;99.90;;;;;;5063075;28;20478;-63
2022/09/29 09:37:34;;;;;;;27.20;9.20;;;14.30;99.90;;;;;;5066919;28;20496;-63
2022/09/29 09:40:07;;;;;;;11.50;7.73;;;14.60;99.90;;;;;;5064792;28;20818;-62
2022/09/29 09:42:38;;;;;;;11.67;7.30;;;14.80;98.90;;;;;;5072599;28;20478;-62
2022/09/29 09:45:10;;;;;;;9.70;7.30;;;15.10;98.60;;;;;;5070662;28;20494;-63
2022/09/29 09:47:42;;;;;;;8.57;6.80;;;15.20;98.30;;;;;;5072306;28;20502;-62
2022/09/29 09:50:14;;;;;;;23.00;8.33;;;15.10;97.60;;;;;;5068353;28;20486;-62
2022/09/29 09:52:46;;;;;;;11.10;7.00;;;15.20;98.50;;;;;;5070978;28;20839;-62
2022/09/29 09:55:16;;;;;;;9.03;8.10;;;;;;;;;;5072148;28;20481;-62
2022/09/29 09:58:01;;;;;;;11.43;7.77;;;15.00;98.20;;;;;;5067028;28;20582;-62
2022/09/29 10:00:32;;;;;;;9.93;7.30;;;15.20;99.50;;;;;;5059232;28;20479;-62
2022/09/29 10:03:04;;;;;;;8.50;7.00;;;15.40;99.10;;;;;;5068742;28;20483;-62
2022/09/29 10:05:36;;;;;;;6.80;6.20;;;15.80;99.10;;;;;;5067774;28;20855;-62
2022/09/29 10:08:04;;;;;;;12.83;6.27;;;16.00;96.90;;;;;;5061537;28;20518;-63
2022/09/29 10:10:31;;;;;;;8.73;6.40;;;16.20;98.00;;;;;;5063054;28;20490;-63
2022/09/29 10:13:02;;;;;;;7.77;6.90;;;16.40;98.30;;;;;;5068599;28;20481;-63
2022/09/29 10:15:33;;;;;;;12.70;6.30;;;16.60;96.50;;;;;;5074167;28;20481;-62
2022/09/29 10:18:07;;;;;;;5.77;5.27;;;16.80;97.40;;;;;;5072604;28;21020;-62
2022/09/29 10:20:36;;;;;;;18.13;6.20;;;16.90;97.00;;;;;;5075159;28;20766;-63
2022/09/29 10:23:26;;;;;;;7.57;6.40;;;16.60;94.20;;;;;;5065793;28;20474;-62
2022/09/29 10:25:59;;;;;;;8.90;5.30;;;16.60;94.80;;;;;;5067781;28;20474;-62
2022/09/29 10:28:30;;;;;;;10.87;8.00;;;16.60;95.90;;;;;;5067557;28;21028;-62
2022/09/29 10:30:57;;;;;;;7.37;5.10;;;16.80;95.90;;;;;;5072516;28;20508;-62
2022/09/29 10:33:26;;;;;;;6.30;5.67;;;17.10;96.10;;;;;;5076203;28;20486;-63
2022/09/29 10:36:07;;;;;;;4.17;3.83;;;17.30;94.80;;;;;;5073316;28;20474;-63
2022/09/29 10:38:36;;;;;;;8.40;5.17;;;17.00;92.90;;;;;;5062854;28;20469;-62
2022/09/29 10:41:05;;;;;;;9.73;5.67;;;17.00;93.50;;;;;;5073022;28;20527;-63
2022/09/29 10:43:36;;;;;;;8.47;4.47;;;17.10;95.00;;;;;;5040663;28;20952;-62
2022/09/29 10:46:05;;;;;;;6.57;5.87;;;16.90;93.30;;;;;;5068599;28;20970;-62
2022/09/29 10:48:33;;;;;;;9.40;5.57;;;16.60;93.50;;;;;;5067666;28;20680;-63
2022/09/29 10:51:02;;;;;;;19.23;5.20;;;16.30;92.70;;;;;;5067101;28;20865;-63
2022/09/29 10:53:35;;;;;;;6.90;4.77;;;16.10;93.20;;;;;;5071641;28;20485;-63
2022/09/29 10:56:07;;;;;;;4.87;4.40;;;16.00;94.10;;;;;;5055514;28;20985;-62
2022/09/29 10:58:36;;;;;;;14.33;5.70;;;16.20;95.10;;;;;;5061698;28;20486;-62
2022/09/29 11:01:07;;;;;;;7.97;5.83;;;16.30;94.90;;;;;;5069250;28;20459;-63
2022/09/29 11:03:38;;;;;;;9.83;5.70;;;16.30;93.20;;;;;;5062885;28;20830;-63
2022/09/29 11:06:07;;;;;;;5.47;4.10;;;16.20;92.90;;;;;;5057007;28;21009;-63
2022/09/29 11:08:56;;;;;;;6.23;5.57;;;16.20;94.60;;;;;;5073489;28;20477;-63
2022/09/29 11:11:26;;;;;;;6.53;5.83;;;16.20;94.10;;;;;;5057924;28;20918;-62
2022/09/29 11:13:53;;;;;;;5.33;4.87;;;15.90;93.50;;;;;;5075105;28;20485;-63
2022/09/29 11:16:28;;;;;;;13.83;5.10;;;16.00;93.80;;;;;;5071383;28;20486;-63
2022/09/29 11:19:00;;;;;;;8.13;4.53;;;16.00;93.20;;;;;;5072283;28;20469;-63
2022/09/29 11:21:52;;;;;;;5.90;5.30;;;16.10;93.50;;;;;;5074049;28;20528;-62
2022/09/29 11:24:28;;;;;;;8.43;6.73;;;16.20;93.60;;;;;;5062710;28;20478;-63
2022/09/29 11:27:01;;;;;;;7.83;4.17;;;16.80;95.70;;;;;;5070666;28;20470;-63
2022/09/29 11:29:37;;;;;;;12.30;5.43;;;17.20;95.80;;;;;;5070738;28;20536;-63
2022/09/29 11:32:24;;;;;;;12.20;5.30;;;17.70;95.40;;;;;;5071047;28;20482;-63
2022/09/29 11:35:05;;;;;;;5.17;4.67;;;18.20;94.40;;;;;;5073965;28;20883;-63
2022/09/29 11:37:46;;;;;;;4.70;4.13;;;18.10;92.70;;;;;;5066090;28;20856;-63
2022/09/29 11:40:21;;;;;;;6.10;5.60;;;18.00;91.90;;;;;;5051649;28;20497;-62
2022/09/29 11:43:25;;;;;;;4.90;4.50;;;17.80;91.50;;;;;;5067574;28;20493;-62
2022/09/29 11:46:05;;;;;;;6.00;4.17;;;17.60;92.20;;;;;;5070643;28;20489;-63
2022/09/29 11:48:40;;;;;;;5.60;3.77;;;;;;;;;;5068995;28;20478;-63
2022/09/29 11:51:20;;;;;;;7.33;4.53;;;17.30;92.40;;;;;;5060834;28;20477;-63
2022/09/29 11:54:11;;;;;;;4.10;3.73;;;17.30;92.60;;;;;;5066649;28;20493;-62
2022/09/29 11:56:44;;;;;;;7.23;4.80;;;17.20;92.30;;;;;;5073173;28;20822;-63
2022/09/29 11:59:31;;;;;;;9.37;4.73;;;17.20;92.40;;;;;;5071976;28;20467;-63
2022/09/29 12:02:18;;;;;;;4.47;3.83;;;17.10;92.00;;;;;;5071351;28;20475;-63
2022/09/29 12:04:55;;;;;;;5.70;4.17;;;17.00;92.20;;;;;;5059455;28;20840;-62
2022/09/29 12:07:36;;;;;;;7.33;4.10;;;16.90;92.10;;;;;;5072074;28;20497;-62
2022/09/29 12:10:18;;;;;;;7.20;5.23;;;16.70;92.80;;;;;;5066982;28;20794;-63
2022/09/29 12:12:54;;;;;;;9.00;5.33;;;16.50;93.30;;;;;;5050312;28;20485;-62
2022/09/29 12:15:31;;;;;;;6.70;6.20;;;16.40;93.10;;;;;;5074506;28;20481;-63
2022/09/29 12:18:03;;;;;;;10.70;5.40;;;16.30;93.80;;;;;;5068427;28;21039;-62
2022/09/29 12:20:33;;;;;;;8.00;5.57;;;16.20;93.60;;;;;;5073852;28;20485;-63
2022/09/29 12:23:07;;;;;;;5.63;5.00;;;16.20;93.80;;;;;;5070932;28;20490;-63
2022/09/29 12:25:39;;;;;;;11.90;4.77;;;16.20;93.90;;;;;;5073248;28;20493;-63
2022/09/29 12:28:12;;;;;;;11.90;6.83;;;16.20;94.10;;;;;;5065206;28;20482;-63
2022/09/29 12:30:46;;;;;;;10.17;6.60;;;16.20;94.30;;;;;;5074771;28;20834;-62
2022/09/29 12:33:17;;;;;;;8.80;7.27;;;16.20;94.50;;;;;;5070998;28;20478;-63
2022/09/29 12:35:53;;;;;;;8.50;5.60;;;16.20;94.10;;;;;;5060766;28;20851;-63
2022/09/29 12:38:28;;;;;;;8.03;7.00;;;16.10;94.40;;;;;;5057524;28;20478;-62
2022/09/29 12:41:04;;;;;;;6.23;5.63;;;16.00;94.50;;;;;;5066161;28;20546;-63
2022/09/29 12:43:40;;;;;;;12.77;6.20;;;16.00;94.80;;;;;;5056843;28;20509;-62
2022/09/29 12:46:15;;;;;;;7.93;5.93;;;16.00;94.80;;;;;;5057562;28;20566;-63
2022/09/29 12:48:54;;;;;;;13.33;7.53;;;16.00;94.70;;;;;;5067029;28;20481;-63
2022/09/29 12:51:29;;;;;;;9.43;7.43;;;16.00;94.70;;;;;;5060900;28;20486;-62
2022/09/29 12:54:09;;;;;;;12.80;6.80;;;15.90;94.90;;;;;;5068750;28;20996;-62
2022/09/29 12:56:39;;;;;;;7.53;6.40;;;16.00;95.40;;;;;;5065662;28;20861;-63
2022/09/29 12:59:12;;;;;;;22.97;6.83;;;16.00;94.90;;;;;;5064676;28;20478;-63
2022/09/29 13:01:39;;;;;;;8.00;6.03;;;16.00;95.10;;;;;;5061082;28;21063;-63
2022/09/29 13:04:36;;;;;;;13.40;6.77;;;16.00;95.40;;;;;;5071268;28;20887;-62
2022/09/29 13:07:25;;;;;;;10.03;7.80;;;16.10;95.30;;;;;;5066216;28;20849;-63
2022/09/29 13:10:02;;;;;;;12.13;5.83;;;16.00;94.90;;;;;;5053205;28;20840;-63